Time;durP1;ratioP1;P1;durP2;ratioP2;P2;SDS_P1;SDS_P2;PMS_P1;PMS_P2;Temp;Humidity;BMP_temperature;BMP_pressure;BME280_temperature;BME280_humidity;BME280_pressure;Samples;Min_cycle;Max_cycle;Signal;HPM_P1;HPM_P2
2022/10/11 00:02:21;;;;;;;9.70;2.22;;;10.50;99.90;;;;;;4326192;28;10000109;-69
2022/10/11 00:04:49;;;;;;;17.02;3.78;;;10.40;99.90;;;;;;5018210;28;20029;-70
2022/10/11 00:07:16;;;;;;;15.57;2.97;;;10.30;99.90;;;;;;5028700;28;20057;-70
2022/10/11 00:09:41;;;;;;;9.02;1.92;;;10.30;99.90;;;;;;5026659;28;20094;-69
2022/10/11 00:12:07;;;;;;;17.98;2.65;;;10.30;99.90;;;;;;5026740;28;20029;-70
2022/10/11 00:14:33;;;;;;;10.50;2.20;;;10.30;99.90;;;;;;5021408;28;20500;-70
2022/10/11 00:16:58;;;;;;;11.80;2.30;;;10.20;99.90;;;;;;5024528;28;20033;-70
2022/10/11 00:19:24;;;;;;;13.18;2.53;;;10.20;99.90;;;;;;5019556;28;20328;-70
2022/10/11 00:21:50;;;;;;;13.27;2.55;;;10.10;99.90;;;;;;5029228;28;20025;-70
2022/10/11 00:24:15;;;;;;;13.30;2.60;;;10.10;99.90;;;;;;5024466;28;20029;-70
2022/10/11 00:26:42;;;;;;;12.63;2.15;;;10.00;99.90;;;;;;5022500;28;20266;-69
2022/10/11 00:29:07;;;;;;;10.70;1.95;;;9.90;99.90;;;;;;5022591;28;20053;-70
2022/10/11 00:31:33;;;;;;;10.43;2.00;;;9.90;99.90;;;;;;5028352;28;20497;-70
2022/10/11 00:33:59;;;;;;;8.73;1.70;;;9.90;99.90;;;;;;5022603;28;20079;-69
2022/10/11 00:36:25;;;;;;;11.35;2.10;;;9.90;99.90;;;;;;5033740;28;20029;-70
2022/10/11 00:38:50;;;;;;;11.98;2.33;;;9.80;99.90;;;;;;5028693;28;20033;-69
2022/10/11 00:41:16;;;;;;;10.57;2.22;;;9.80;99.90;;;;;;5028257;28;20025;-69
2022/10/11 00:43:42;;;;;;;9.25;2.00;;;9.70;99.90;;;;;;5018204;28;20041;-69
2022/10/11 00:46:17;;;;;;;9.02;2.42;;;9.70;99.90;;;;;;5024324;28;20037;-69
2022/10/11 00:48:49;;;;;;;18.15;5.05;;;9.70;99.90;;;;;;5026699;28;20390;-70
2022/10/11 00:51:41;;;;;;;12.93;4.17;;;9.70;99.90;;;;;;5030035;28;20056;-69
2022/10/11 00:54:12;;;;;;;12.05;2.47;;;9.60;99.90;;;;;;5035820;28;20283;-70
2022/10/11 00:56:40;;;;;;;9.45;2.38;;;9.50;99.90;;;;;;5039263;28;20393;-69
2022/10/11 00:59:11;;;;;;;9.57;2.25;;;9.50;99.90;;;;;;5035575;28;20508;-69
2022/10/11 01:01:37;;;;;;;9.43;2.05;;;9.50;99.90;;;;;;5026449;28;20068;-69
2022/10/11 01:04:03;;;;;;;9.10;1.95;;;9.40;99.90;;;;;;5034584;28;20465;-69
2022/10/11 01:06:28;;;;;;;7.63;1.90;;;9.40;99.90;;;;;;5039341;28;20128;-69
2022/10/11 01:08:55;;;;;;;8.45;1.65;;;9.40;99.90;;;;;;5027771;28;20033;-69
2022/10/11 01:11:24;;;;;;;10.30;2.13;;;9.30;99.90;;;;;;5035307;28;20528;-70
2022/10/11 01:14:08;;;;;;;9.70;2.03;;;9.30;99.90;;;;;;5033083;28;20131;-70
2022/10/11 01:16:52;;;;;;;19.05;2.65;;;9.30;99.90;;;;;;5039839;28;20111;-70
2022/10/11 01:19:36;;;;;;;9.80;1.85;;;9.30;99.90;;;;;;5038347;28;20385;-70
2022/10/11 01:22:32;;;;;;;10.13;2.00;;;9.20;99.90;;;;;;5030922;28;20029;-70
2022/10/11 01:25:10;;;;;;;7.85;1.85;;;9.20;99.90;;;;;;5031872;28;20041;-69
2022/10/11 01:27:48;;;;;;;7.30;1.65;;;9.20;99.90;;;;;;5030851;28;20032;-70
2022/10/11 01:30:17;;;;;;;12.65;2.15;;;9.10;99.90;;;;;;5033032;28;20501;-70
2022/10/11 01:32:49;;;;;;;8.75;1.88;;;9.10;99.90;;;;;;5028432;28;20040;-69
2022/10/11 01:35:31;;;;;;;9.95;1.63;;;9.00;99.90;;;;;;5024145;28;20040;-70
2022/10/11 01:38:26;;;;;;;8.00;1.90;;;9.00;99.90;;;;;;5028320;28;20036;-70
2022/10/11 01:40:57;;;;;;;6.40;1.67;;;8.90;99.90;;;;;;5042752;28;20448;-70
2022/10/11 01:43:25;;;;;;;7.80;1.77;;;8.80;99.90;;;;;;5036136;28;20393;-69
2022/10/11 01:45:52;;;;;;;9.68;1.60;;;8.80;99.90;;;;;;5031952;28;20539;-70
2022/10/11 01:48:18;;;;;;;5.05;1.38;;;8.80;99.90;;;;;;5037620;28;20048;-69
2022/10/11 01:50:52;;;;;;;6.18;1.75;;;8.80;99.90;;;;;;5038809;28;20076;-69
2022/10/11 01:53:33;;;;;;;9.55;1.80;;;8.80;99.90;;;;;;5027940;28;20064;-69
2022/10/11 01:56:10;;;;;;;8.38;1.65;;;8.80;99.90;;;;;;5027332;28;20144;-69
2022/10/11 01:58:57;;;;;;;6.63;1.45;;;8.80;99.90;;;;;;5027334;28;20757;-69
2022/10/11 02:01:31;;;;;;;8.57;1.98;;;8.70;99.90;;;;;;5034503;28;20032;-70
2022/10/11 02:04:07;;;;;;;6.88;1.77;;;8.70;99.90;;;;;;5029114;28;20401;-69
2022/10/11 02:06:49;;;;;;;11.45;2.13;;;8.70;99.90;;;;;;5028173;28;20048;-69
2022/10/11 02:09:28;;;;;;;5.88;1.63;;;8.70;99.90;;;;;;5042050;28;20067;-69
2022/10/11 02:12:00;;;;;;;4.20;1.63;;;8.60;99.90;;;;;;5038663;28;20034;-69
2022/10/11 02:14:30;;;;;;;9.00;1.58;;;8.50;99.90;;;;;;5028206;28;20041;-69
2022/10/11 02:17:18;;;;;;;6.32;1.70;;;8.50;99.90;;;;;;5035143;28;20032;-69
2022/10/11 02:19:48;;;;;;;8.15;1.83;;;8.40;99.90;;;;;;5034048;28;20069;-69
2022/10/11 02:22:23;;;;;;;10.15;2.20;;;8.40;99.90;;;;;;5031179;28;20043;-69
2022/10/11 02:24:52;;;;;;;9.93;1.83;;;8.40;99.90;;;;;;5029148;28;20036;-69
2022/10/11 02:27:22;;;;;;;6.88;1.90;;;8.30;99.90;;;;;;5038808;28;20021;-69
2022/10/11 02:29:51;;;;;;;5.30;1.75;;;8.30;99.90;;;;;;5035709;28;20045;-69
2022/10/11 02:32:19;;;;;;;6.07;1.63;;;8.20;99.90;;;;;;5030805;28;20048;-69
2022/10/11 02:34:53;;;;;;;7.55;1.70;;;8.20;99.90;;;;;;5029028;28;20033;-69
2022/10/11 02:37:43;;;;;;;7.45;1.90;;;8.10;99.90;;;;;;5036560;28;20390;-69
2022/10/11 02:40:14;;;;;;;5.35;1.63;;;8.10;99.90;;;;;;5036161;28;20016;-69
2022/10/11 02:42:47;;;;;;;7.38;2.33;;;8.10;99.90;;;;;;5036578;28;20448;-69
2022/10/11 02:45:25;;;;;;;6.50;1.92;;;8.10;99.90;;;;;;5036539;28;20034;-69
2022/10/11 02:47:51;;;;;;;7.82;1.88;;;8.10;99.90;;;;;;5036179;28;20521;-70
2022/10/11 02:50:17;;;;;;;5.53;1.98;;;8.00;99.90;;;;;;5032500;28;20037;-69
2022/10/11 02:52:42;;;;;;;6.72;2.10;;;8.10;99.90;;;;;;5031450;28;20075;-70
2022/10/11 02:55:09;;;;;;;4.70;1.98;;;8.00;99.90;;;;;;5030511;28;20035;-69
2022/10/11 02:57:35;;;;;;;6.15;2.13;;;8.00;99.90;;;;;;5033938;28;20442;-69
2022/10/11 03:00:01;;;;;;;6.13;1.88;;;8.00;99.90;;;;;;5038200;28;20025;-70
2022/10/11 03:02:26;;;;;;;7.45;2.13;;;8.00;99.90;;;;;;5037248;28;20032;-69
2022/10/11 03:04:52;;;;;;;7.80;2.20;;;8.00;99.90;;;;;;5026173;28;20534;-69
2022/10/11 03:07:18;;;;;;;8.18;2.00;;;7.90;99.90;;;;;;5039614;28;20033;-69
2022/10/11 03:09:44;;;;;;;5.85;2.13;;;7.90;99.90;;;;;;5041488;28;20085;-69
2022/10/11 03:12:09;;;;;;;6.45;2.20;;;7.90;99.90;;;;;;5036785;28;20107;-69
2022/10/11 03:14:35;;;;;;;6.47;2.17;;;7.90;99.90;;;;;;5041344;28;20036;-69
2022/10/11 03:17:01;;;;;;;8.20;2.67;;;7.90;99.90;;;;;;5036578;28;20056;-69
2022/10/11 03:19:26;;;;;;;7.30;2.80;;;7.80;99.90;;;;;;5027190;28;20021;-69
2022/10/11 03:21:52;;;;;;;8.23;3.10;;;7.80;99.90;;;;;;5034109;28;20025;-69
2022/10/11 03:24:17;;;;;;;5.40;2.20;;;7.70;99.90;;;;;;5027245;28;20025;-69
2022/10/11 03:26:43;;;;;;;5.78;2.38;;;7.70;99.90;;;;;;5022266;28;20032;-69
2022/10/11 03:29:09;;;;;;;6.72;2.28;;;7.70;99.90;;;;;;5027255;28;20132;-69
2022/10/11 03:31:34;;;;;;;5.78;2.10;;;7.70;99.90;;;;;;5023261;28;20033;-69
2022/10/11 03:34:00;;;;;;;8.82;2.78;;;7.70;99.90;;;;;;5035029;28;20448;-69
2022/10/11 03:36:25;;;;;;;8.15;2.40;;;7.70;99.90;;;;;;5030630;28;20389;-69
2022/10/11 03:38:51;;;;;;;7.55;2.30;;;7.70;99.90;;;;;;5030347;28;20030;-69
2022/10/11 03:41:17;;;;;;;6.72;2.60;;;7.70;99.90;;;;;;5033133;28;20107;-69
2022/10/11 03:43:42;;;;;;;6.70;2.50;;;7.70;99.90;;;;;;5038576;28;20017;-69
2022/10/11 03:46:08;;;;;;;6.57;2.83;;;7.60;99.90;;;;;;5038886;28;20021;-69
2022/10/11 03:48:33;;;;;;;8.00;3.17;;;7.60;99.90;;;;;;5038262;28;20485;-69
2022/10/11 03:50:59;;;;;;;8.45;2.97;;;7.60;99.90;;;;;;5042577;28;20029;-69
2022/10/11 03:53:25;;;;;;;7.63;2.85;;;7.50;99.90;;;;;;5032345;28;20040;-69
2022/10/11 03:55:53;;;;;;;6.93;3.05;;;7.40;99.90;;;;;;5033998;28;20045;-69
2022/10/11 03:58:19;;;;;;;7.13;2.90;;;7.40;99.90;;;;;;5032891;28;20227;-69
2022/10/11 04:00:45;;;;;;;6.70;2.95;;;7.40;99.90;;;;;;5039073;28;20501;-70
2022/10/11 04:03:10;;;;;;;8.68;3.03;;;7.40;99.90;;;;;;5027762;28;20032;-69
2022/10/11 04:05:36;;;;;;;7.75;3.10;;;7.40;99.90;;;;;;5029001;28;20052;-69
2022/10/11 04:08:02;;;;;;;11.75;3.78;;;7.40;99.90;;;;;;5034154;28;20052;-69
2022/10/11 04:10:29;;;;;;;11.02;3.72;;;7.30;99.90;;;;;;5042127;28;20692;-70
2022/10/11 04:12:55;;;;;;;7.60;2.88;;;7.40;99.90;;;;;;5040043;28;20456;-69
2022/10/11 04:15:21;;;;;;;6.82;3.05;;;7.30;99.90;;;;;;5038368;28;20020;-70
2022/10/11 04:17:46;;;;;;;7.95;3.45;;;7.40;99.90;;;;;;5029216;28;20033;-69
2022/10/11 04:20:12;;;;;;;10.13;3.42;;;7.40;99.90;;;;;;5031354;28;20021;-69
2022/10/11 04:22:38;;;;;;;8.05;3.55;;;7.30;99.90;;;;;;5037525;28;20029;-69
2022/10/11 04:25:05;;;;;;;7.20;3.30;;;7.30;99.90;;;;;;5042521;28;20029;-69
2022/10/11 04:27:31;;;;;;;8.10;3.20;;;7.20;99.90;;;;;;5027621;28;20048;-69
2022/10/11 04:29:56;;;;;;;12.30;3.83;;;7.10;99.90;;;;;;5032123;28;20405;-69
2022/10/11 04:32:22;;;;;;;9.90;3.55;;;7.10;99.90;;;;;;5035556;28;20025;-69
2022/10/11 04:34:47;;;;;;;8.18;3.40;;;7.00;99.90;;;;;;5040981;28;20024;-69
2022/10/11 04:37:13;;;;;;;5.80;2.95;;;7.10;99.90;;;;;;5032053;28;20033;-69
2022/10/11 04:39:39;;;;;;;7.80;3.15;;;7.10;99.90;;;;;;5027177;28;20144;-69
2022/10/11 04:42:04;;;;;;;7.75;2.90;;;7.00;99.90;;;;;;5039120;28;20017;-69
2022/10/11 04:44:30;;;;;;;10.18;3.30;;;7.00;99.90;;;;;;5036900;28;20029;-69
2022/10/11 04:46:56;;;;;;;10.85;3.50;;;7.00;99.90;;;;;;5033488;28;20087;-69
2022/10/11 04:49:22;;;;;;;7.68;2.78;;;6.90;99.90;;;;;;5031929;28;20424;-69
2022/10/11 04:51:48;;;;;;;10.50;3.38;;;6.80;99.90;;;;;;5027667;28;20044;-69
2022/10/11 04:54:14;;;;;;;8.75;3.65;;;6.70;99.90;;;;;;5028244;28;20750;-69
2022/10/11 04:56:40;;;;;;;6.57;3.05;;;6.70;99.90;;;;;;5027592;28;20082;-70
2022/10/11 04:59:05;;;;;;;7.35;3.33;;;6.70;99.90;;;;;;5039710;28;20025;-69
2022/10/11 05:01:31;;;;;;;10.48;3.47;;;6.70;99.90;;;;;;5025849;28;20033;-69
2022/10/11 05:03:57;;;;;;;8.82;3.47;;;6.70;99.90;;;;;;5027424;28;20077;-69
2022/10/11 05:06:23;;;;;;;9.13;3.08;;;6.60;99.90;;;;;;5026353;28;20533;-69
2022/10/11 05:08:49;;;;;;;8.02;3.30;;;6.60;99.90;;;;;;5043887;28;20087;-69
2022/10/11 05:11:16;;;;;;;6.68;3.10;;;6.50;99.90;;;;;;5040417;28;20030;-69
2022/10/11 05:13:43;;;;;;;5.13;2.67;;;6.50;99.90;;;;;;5032168;28;20044;-69
2022/10/11 05:16:08;;;;;;;4.95;2.72;;;6.50;99.90;;;;;;5038200;28;20433;-69
2022/10/11 05:18:34;;;;;;;11.82;3.30;;;6.50;99.90;;;;;;5030298;28;20029;-69
2022/10/11 05:21:02;;;;;;;13.48;6.07;;;6.60;99.90;;;;;;5034906;28;20530;-69
2022/10/11 05:23:29;;;;;;;24.20;10.43;;;6.60;99.90;;;;;;5028348;28;20029;-69
2022/10/11 05:25:55;;;;;;;26.38;12.10;;;6.50;99.90;;;;;;5025824;28;20105;-70
2022/10/11 05:28:21;;;;;;;27.10;12.13;;;6.60;99.90;;;;;;5034769;28;20120;-69
2022/10/11 05:30:47;;;;;;;21.23;10.77;;;6.60;99.90;;;;;;5037935;28;20028;-69
2022/10/11 05:33:12;;;;;;;22.23;11.35;;;6.60;99.90;;;;;;5039954;28;20547;-69
2022/10/11 05:35:38;;;;;;;20.73;10.80;;;6.70;99.90;;;;;;5035226;28;20512;-68
2022/10/11 05:38:04;;;;;;;23.88;10.75;;;6.70;99.90;;;;;;5029393;28;20025;-68
2022/10/11 05:40:29;;;;;;;27.85;12.93;;;6.80;99.90;;;;;;5031699;28;20045;-69
2022/10/11 05:42:55;;;;;;;33.28;16.88;;;6.80;99.90;;;;;;5030222;28;20531;-69
2022/10/11 05:45:21;;;;;;;31.50;17.13;;;6.80;99.90;;;;;;5028531;28;20469;-69
2022/10/11 05:47:46;;;;;;;27.63;16.10;;;6.80;99.90;;;;;;5027078;28;20029;-69
2022/10/11 05:50:12;;;;;;;16.25;8.73;;;;;;;;;;5026807;28;20185;-69
2022/10/11 05:52:38;;;;;;;16.95;9.38;;;6.90;99.90;;;;;;5024719;28;20040;-68
2022/10/11 05:55:04;;;;;;;20.42;10.48;;;6.90;99.90;;;;;;5033225;28;20037;-68
2022/10/11 05:57:29;;;;;;;14.40;8.27;;;6.80;99.90;;;;;;5032765;28;20029;-69
2022/10/11 05:59:55;;;;;;;13.43;7.22;;;6.80;99.90;;;;;;5025391;28;20465;-69
2022/10/11 06:02:21;;;;;;;10.90;5.35;;;6.80;99.90;;;;;;5021684;28;20454;-69
2022/10/11 06:04:46;;;;;;;10.93;5.65;;;6.80;99.90;;;;;;5030323;28;20036;-69
2022/10/11 06:07:12;;;;;;;34.72;17.92;;;6.80;99.90;;;;;;5033446;28;20029;-69
2022/10/11 06:09:38;;;;;;;55.63;28.17;;;6.80;99.90;;;;;;5030249;28;20498;-69
2022/10/11 06:12:04;;;;;;;33.97;17.70;;;6.80;99.90;;;;;;5036703;28;20025;-69
2022/10/11 06:14:30;;;;;;;26.08;13.57;;;6.80;99.90;;;;;;5025412;28;20032;-69
2022/10/11 06:16:55;;;;;;;36.97;17.60;;;6.80;99.90;;;;;;5029233;28;20032;-69
2022/10/11 06:19:21;;;;;;;21.23;12.23;;;6.80;99.90;;;;;;5034164;28;20076;-69
2022/10/11 06:21:47;;;;;;;21.27;9.73;;;6.80;99.90;;;;;;5033843;28;20300;-69
2022/10/11 06:24:13;;;;;;;14.00;10.05;;;6.90;99.90;;;;;;5031561;28;20025;-69
2022/10/11 06:26:39;;;;;;;21.08;11.93;;;6.90;99.90;;;;;;5041970;28;20036;-69
2022/10/11 06:29:05;;;;;;;20.27;9.73;;;6.90;99.90;;;;;;5027836;28;20041;-69
2022/10/11 06:31:31;;;;;;;18.00;9.75;;;6.90;99.90;;;;;;5032102;28;20391;-69
2022/10/11 06:33:58;;;;;;;15.25;7.90;;;6.90;99.90;;;;;;5028564;28;20418;-69
2022/10/11 06:36:24;;;;;;;14.52;6.70;;;6.90;99.90;;;;;;5031104;28;20657;-69
2022/10/11 06:38:54;;;;;;;11.98;5.40;;;6.80;99.90;;;;;;5036652;28;20037;-69
2022/10/11 06:41:21;;;;;;;11.20;4.60;;;6.80;99.90;;;;;;5036662;28;21281;-70
2022/10/11 06:43:48;;;;;;;9.45;4.10;;;6.80;99.90;;;;;;5028809;28;20021;-69
2022/10/11 06:46:15;;;;;;;13.68;4.70;;;6.90;99.90;;;;;;5022808;28;20067;-70
2022/10/11 06:48:42;;;;;;;13.00;5.15;;;6.90;99.90;;;;;;5038885;28;20540;-69
2022/10/11 06:51:09;;;;;;;10.18;4.80;;;7.00;99.90;;;;;;5029450;28;20657;-69
2022/10/11 06:53:35;;;;;;;12.07;4.70;;;7.10;99.90;;;;;;5027108;28;20120;-69
2022/10/11 06:56:06;;;;;;;14.48;5.35;;;7.10;99.90;;;;;;5023266;28;20040;-69
2022/10/11 06:58:32;;;;;;;10.45;5.43;;;7.20;99.90;;;;;;5030362;28;20029;-69
2022/10/11 07:01:06;;;;;;;11.05;4.88;;;7.30;99.90;;;;;;5020208;28;20134;-69
2022/10/11 07:03:32;;;;;;;17.80;5.57;;;7.50;99.90;;;;;;5022596;28;20029;-69
2022/10/11 07:06:09;;;;;;;12.98;5.60;;;7.60;99.90;;;;;;5038988;28;20256;-69
2022/10/11 07:08:36;;;;;;;12.10;5.35;;;7.70;99.90;;;;;;5025000;28;20457;-69
2022/10/11 07:11:10;;;;;;;9.90;4.90;;;7.80;99.90;;;;;;5032669;28;20393;-69
2022/10/11 07:13:37;;;;;;;12.45;4.85;;;7.90;99.90;;;;;;5025960;28;20029;-69
2022/10/11 07:16:04;;;;;;;14.00;5.00;;;8.00;99.90;;;;;;5022786;28;20036;-69
2022/10/11 07:18:31;;;;;;;12.25;4.93;;;7.90;99.90;;;;;;5027015;28;20375;-69
2022/10/11 07:20:57;;;;;;;13.70;5.28;;;7.90;99.90;;;;;;5031945;28;20040;-69
2022/10/11 07:23:23;;;;;;;17.08;5.60;;;8.00;99.90;;;;;;5037670;28;20516;-69
2022/10/11 07:25:53;;;;;;;12.18;5.00;;;8.10;99.90;;;;;;5034782;28;20794;-69
2022/10/11 07:28:18;;;;;;;15.30;4.80;;;8.30;99.90;;;;;;5042549;28;20071;-69
2022/10/11 07:30:44;;;;;;;11.27;4.88;;;8.30;99.90;;;;;;5036206;28;20348;-70
2022/10/11 07:33:10;;;;;;;13.00;5.00;;;8.40;99.90;;;;;;5033179;28;20469;-70
2022/10/11 07:35:36;;;;;;;24.10;6.10;;;8.50;99.90;;;;;;5040835;28;20103;-69
2022/10/11 07:38:04;;;;;;;16.27;4.72;;;8.60;99.90;;;;;;5035907;28;20026;-70
2022/10/11 07:40:30;;;;;;;18.73;5.53;;;8.70;99.90;;;;;;5025282;28;20053;-70
2022/10/11 07:42:57;;;;;;;12.70;5.20;;;;;;;;;;5035534;28;20040;-70
2022/10/11 07:45:24;;;;;;;25.65;11.52;;;8.90;99.90;;;;;;5033330;28;20249;-70
2022/10/11 07:47:49;;;;;;;20.38;10.15;;;9.10;99.90;;;;;;5031597;28;20033;-70
2022/10/11 07:50:15;;;;;;;14.88;7.20;;;9.20;99.90;;;;;;5039651;28;20028;-69
2022/10/11 07:52:41;;;;;;;12.27;6.18;;;9.30;99.90;;;;;;5034505;28;20961;-70
2022/10/11 07:55:07;;;;;;;18.25;7.65;;;9.40;99.90;;;;;;5043585;28;20036;-70
2022/10/11 07:57:33;;;;;;;20.20;8.90;;;9.50;99.90;;;;;;5038241;28;20040;-70
2022/10/11 07:59:59;;;;;;;16.95;6.63;;;9.60;99.90;;;;;;5032325;28;20390;-69
2022/10/11 08:02:24;;;;;;;15.85;5.57;;;9.70;99.90;;;;;;5035304;28;20433;-69
2022/10/11 08:04:50;;;;;;;15.88;5.85;;;9.80;99.90;;;;;;5045970;28;20025;-69
2022/10/11 08:07:15;;;;;;;16.55;6.50;;;10.00;99.90;;;;;;5025791;28;20076;-69
2022/10/11 08:09:41;;;;;;;19.00;6.35;;;10.00;99.90;;;;;;5029852;28;20021;-69
2022/10/11 08:12:07;;;;;;;16.40;7.03;;;10.00;99.90;;;;;;5045870;28;20033;-70
2022/10/11 08:14:32;;;;;;;15.48;6.57;;;9.90;99.90;;;;;;5032325;28;20037;-69
2022/10/11 08:16:58;;;;;;;16.65;6.40;;;9.90;99.90;;;;;;5031099;28;20025;-69
2022/10/11 08:19:24;;;;;;;16.90;6.38;;;9.80;99.90;;;;;;5045523;28;20521;-70
2022/10/11 08:21:49;;;;;;;17.27;6.85;;;9.70;99.90;;;;;;5038053;28;20021;-70
2022/10/11 08:24:19;;;;;;;20.95;7.68;;;9.70;99.90;;;;;;5035884;28;20022;-70
2022/10/11 08:26:45;;;;;;;25.92;6.97;;;9.70;99.90;;;;;;5033558;28;20513;-69
2022/10/11 08:29:13;;;;;;;15.18;6.30;;;9.80;99.90;;;;;;5028024;28;20509;-69
2022/10/11 08:31:38;;;;;;;19.83;7.47;;;9.90;99.90;;;;;;5029023;28;20034;-69
2022/10/11 08:34:04;;;;;;;22.42;7.95;;;10.10;99.90;;;;;;5034747;28;20033;-69
2022/10/11 08:36:29;;;;;;;27.23;8.13;;;10.20;99.90;;;;;;5023818;28;20057;-70
2022/10/11 08:38:55;;;;;;;17.80;7.20;;;10.40;99.90;;;;;;5040982;28;20021;-69
2022/10/11 08:41:49;;;;;;;23.38;7.88;;;10.50;99.90;;;;;;5034663;28;20100;-69
2022/10/11 08:44:21;;;;;;;17.42;6.95;;;10.60;99.90;;;;;;5036168;28;20071;-70
2022/10/11 08:46:52;;;;;;;18.65;7.30;;;10.70;99.90;;;;;;5044468;28;20024;-69
2022/10/11 08:49:22;;;;;;;18.77;5.90;;;10.80;99.90;;;;;;5044065;28;20528;-71
2022/10/11 08:51:58;;;;;;;12.55;4.40;;;10.80;99.90;;;;;;5028486;28;20095;-70
2022/10/11 08:54:46;;;;;;;15.55;4.53;;;10.80;99.90;;;;;;5027205;28;20021;-70
2022/10/11 08:57:34;;;;;;;16.65;4.75;;;10.80;99.90;;;;;;5032828;28;20493;-70
2022/10/11 09:00:13;;;;;;;13.95;4.18;;;10.80;99.90;;;;;;5036555;28;20204;-69
2022/10/11 09:02:49;;;;;;;14.43;4.38;;;10.80;99.90;;;;;;5035313;28;20435;-71
2022/10/11 09:05:16;;;;;;;13.63;4.85;;;10.90;99.90;;;;;;5039818;28;20025;-71
2022/10/11 09:08:07;;;;;;;14.80;4.68;;;11.00;99.90;;;;;;5032406;28;20029;-70
2022/10/11 09:10:52;;;;;;;16.83;4.72;;;11.10;99.90;;;;;;5025890;28;20497;-70
2022/10/11 09:13:42;;;;;;;13.60;5.05;;;11.10;99.90;;;;;;5026533;28;20461;-69
2022/10/11 09:16:46;;;;;;;15.73;4.80;;;11.20;99.90;;;;;;5024687;28;20118;-69
2022/10/11 09:19:28;;;;;;;13.13;4.22;;;11.30;99.90;;;;;;5027305;28;20034;-68
2022/10/11 09:21:56;;;;;;;10.38;3.45;;;11.40;99.90;;;;;;5030129;28;20103;-69
2022/10/11 09:24:52;;;;;;;12.25;3.72;;;11.50;99.90;;;;;;5032628;28;20025;-69
2022/10/11 09:27:27;;;;;;;12.52;3.55;;;11.60;99.90;;;;;;5025855;28;20038;-69
2022/10/11 09:30:11;;;;;;;12.18;3.78;;;11.70;99.90;;;;;;5031498;28;20461;-69
2022/10/11 09:33:00;;;;;;;16.33;5.40;;;11.70;99.90;;;;;;5025388;28;20036;-69
2022/10/11 09:35:31;;;;;;;18.80;6.90;;;11.70;99.90;;;;;;5023719;28;20585;-69
2022/10/11 09:38:47;;;;;;;15.68;5.72;;;11.80;99.90;;;;;;5027210;28;20050;-69
2022/10/11 09:41:15;;;;;;;15.10;6.40;;;11.70;99.90;;;;;;5029360;28;20061;-69
2022/10/11 09:43:47;;;;;;;17.35;6.18;;;11.70;99.90;;;;;;5029262;28;20033;-69
2022/10/11 09:46:23;;;;;;;25.15;7.60;;;11.80;99.90;;;;;;5031132;28;20444;-69
2022/10/11 09:48:50;;;;;;;20.05;7.03;;;11.90;99.90;;;;;;5031848;28;20456;-69
2022/10/11 09:51:20;;;;;;;18.70;5.57;;;12.00;99.90;;;;;;5032966;28;20033;-68
2022/10/11 09:54:05;;;;;;;20.80;6.60;;;12.00;99.90;;;;;;5033644;28;20029;-70
2022/10/11 09:56:38;;;;;;;22.15;8.63;;;12.10;99.90;;;;;;5025549;28;20040;-69
2022/10/11 09:59:34;;;;;;;24.83;11.80;;;12.20;99.90;;;;;;5026840;28;20488;-69
2022/10/11 10:02:13;;;;;;;17.63;6.63;;;12.30;99.90;;;;;;5027447;28;20036;-70
2022/10/11 10:05:13;;;;;;;20.88;7.20;;;12.50;99.90;;;;;;5029030;28;20500;-69
2022/10/11 10:07:56;;;;;;;21.50;6.07;;;12.70;99.90;;;;;;5029084;28;20043;-69
2022/10/11 10:10:51;;;;;;;28.75;7.03;;;12.70;99.90;;;;;;5031517;28;20493;-71
2022/10/11 10:13:54;;;;;;;16.15;5.55;;;12.80;99.90;;;;;;5034674;28;20037;-69
2022/10/11 10:16:31;;;;;;;20.80;6.70;;;12.90;99.90;;;;;;5024826;28;20575;-70
2022/10/11 10:18:58;;;;;;;17.25;5.90;;;12.80;99.90;;;;;;5035416;28;20398;-70
2022/10/11 10:21:36;;;;;;;20.52;5.90;;;12.80;99.90;;;;;;5033495;28;20029;-70
2022/10/11 10:24:15;;;;;;;13.02;5.07;;;12.70;99.90;;;;;;5032907;28;20149;-70
2022/10/11 10:26:41;;;;;;;16.65;5.18;;;12.70;99.90;;;;;;5029567;28;20138;-70
2022/10/11 10:29:07;;;;;;;15.20;5.18;;;12.70;99.90;;;;;;5034346;28;20117;-70
2022/10/11 10:31:51;;;;;;;18.60;5.80;;;12.80;99.90;;;;;;5034144;28;20029;-69
2022/10/11 10:34:40;;;;;;;20.45;5.38;;;12.80;99.90;;;;;;5025791;28;20557;-69
2022/10/11 10:37:21;;;;;;;14.52;4.93;;;12.80;99.90;;;;;;5040263;28;20650;-69
2022/10/11 10:39:48;;;;;;;13.45;4.50;;;12.90;99.90;;;;;;5028615;28;20029;-69
2022/10/11 10:42:17;;;;;;;15.63;4.60;;;13.00;99.90;;;;;;5036371;28;20083;-70
2022/10/11 10:44:51;;;;;;;15.68;4.93;;;13.10;99.90;;;;;;5027135;28;20448;-69
2022/10/11 10:47:40;;;;;;;15.30;4.65;;;13.30;99.90;;;;;;5036226;28;20060;-69
2022/10/11 10:50:13;;;;;;;16.17;4.15;;;13.50;99.90;;;;;;5040164;28;20028;-69
2022/10/11 10:52:48;;;;;;;13.60;3.70;;;13.50;99.90;;;;;;5027401;28;20075;-69
2022/10/11 10:55:25;;;;;;;14.82;4.60;;;13.50;99.90;;;;;;5039234;28;20062;-69
2022/10/11 10:57:53;;;;;;;11.30;3.38;;;13.50;99.90;;;;;;5041384;28;20025;-69
2022/10/11 11:00:22;;;;;;;13.73;4.03;;;13.50;99.90;;;;;;5042511;28;20028;-69
2022/10/11 11:03:00;;;;;;;11.52;4.22;;;13.50;99.90;;;;;;5031148;28;20162;-70
2022/10/11 11:05:35;;;;;;;14.20;4.13;;;13.40;99.90;;;;;;5040158;28;20042;-69
2022/10/11 11:08:25;;;;;;;15.75;4.20;;;13.20;99.90;;;;;;5036492;28;20033;-69
2022/10/11 11:11:17;;;;;;;11.77;3.72;;;13.20;99.90;;;;;;5033673;28;20041;-69
2022/10/11 11:13:47;;;;;;;10.30;3.42;;;13.30;99.90;;;;;;5030308;28;20075;-69
2022/10/11 11:16:25;;;;;;;12.73;3.85;;;13.20;99.90;;;;;;5031375;28;20060;-69
2022/10/11 11:18:59;;;;;;;12.95;3.88;;;13.20;99.90;;;;;;5040154;28;20032;-69
2022/10/11 11:22:05;;;;;;;11.38;3.63;;;13.40;99.90;;;;;;5024509;28;20049;-70
2022/10/11 11:24:40;;;;;;;13.00;3.90;;;13.60;99.90;;;;;;5028611;28;20513;-70
2022/10/11 11:27:15;;;;;;;11.15;3.35;;;13.80;99.90;;;;;;5036612;28;20014;-71
2022/10/11 11:29:52;;;;;;;13.30;4.10;;;14.00;99.90;;;;;;5034436;28;20048;-70
2022/10/11 11:32:42;;;;;;;15.85;3.92;;;14.20;99.90;;;;;;5031280;28;20021;-70
2022/10/11 11:35:26;;;;;;;13.20;3.65;;;14.40;99.90;;;;;;5036517;28;20025;-71
2022/10/11 11:37:57;;;;;;;10.88;3.60;;;14.40;99.90;;;;;;5027305;28;20046;-71
2022/10/11 11:40:36;;;;;;;14.90;3.60;;;14.50;99.90;;;;;;5038129;28;20071;-71
2022/10/11 11:43:25;;;;;;;15.38;3.95;;;14.50;99.90;;;;;;5031080;28;20029;-71
2022/10/11 11:45:56;;;;;;;11.43;3.47;;;14.50;99.90;;;;;;5030039;28;20057;-71
2022/10/11 11:48:24;;;;;;;11.50;3.60;;;14.30;99.90;;;;;;5027532;28;20186;-70
2022/10/11 11:51:11;;;;;;;10.00;3.67;;;14.30;99.90;;;;;;5035640;28;20024;-70
2022/10/11 11:54:05;;;;;;;13.05;3.50;;;14.30;99.90;;;;;;5028978;28;20116;-71
2022/10/11 11:56:55;;;;;;;12.40;3.80;;;14.40;99.90;;;;;;5037555;28;20154;-70
2022/10/11 11:59:45;;;;;;;14.10;4.05;;;14.40;99.90;;;;;;5034972;28;20063;-70
2022/10/11 12:02:11;;;;;;;15.90;4.20;;;14.40;99.90;;;;;;5029336;28;20492;-70
2022/10/11 12:04:40;;;;;;;11.05;3.55;;;14.40;99.90;;;;;;5024426;28;20128;-70
2022/10/11 12:07:16;;;;;;;13.85;3.67;;;14.40;99.90;;;;;;5044372;28;20067;-70
2022/10/11 12:09:45;;;;;;;14.57;4.07;;;14.50;99.90;;;;;;5033480;28;20120;-70
2022/10/11 12:12:35;;;;;;;16.67;4.35;;;14.50;99.90;;;;;;5027217;28;20021;-70
2022/10/11 12:15:07;;;;;;;10.10;3.67;;;14.60;99.90;;;;;;5034848;28;21890;-71
2022/10/11 12:17:54;;;;;;;14.60;3.47;;;14.60;99.90;;;;;;5024847;28;20048;-71
2022/10/11 12:20:24;;;;;;;10.88;3.58;;;14.60;99.90;;;;;;5028948;28;20060;-71
2022/10/11 12:22:53;;;;;;;10.35;3.92;;;14.80;99.90;;;;;;5031609;28;20021;-71
2022/10/11 12:25:21;;;;;;;11.95;2.92;;;14.80;99.90;;;;;;5030014;28;20028;-70
2022/10/11 12:27:48;;;;;;;9.35;2.70;;;14.80;99.90;;;;;;5028692;28;20393;-70
2022/10/11 12:30:54;;;;;;;16.50;3.38;;;14.90;99.90;;;;;;5037532;28;20036;-70
2022/10/11 12:33:20;;;;;;;9.55;2.97;;;15.00;99.90;;;;;;5037921;28;20086;-70
2022/10/11 12:35:51;;;;;;;8.57;2.63;;;15.10;99.90;;;;;;5039289;28;20053;-70
2022/10/11 12:38:27;;;;;;;13.20;2.72;;;15.20;99.90;;;;;;5024678;28;20040;-71
2022/10/11 12:41:08;;;;;;;11.38;1.95;;;15.20;99.90;;;;;;5031528;28;20064;-71
2022/10/11 12:43:48;;;;;;;9.13;2.15;;;15.20;99.90;;;;;;5028108;28;20155;-70
2022/10/11 12:46:32;;;;;;;9.57;2.22;;;15.30;99.90;;;;;;5025225;28;20037;-71
2022/10/11 12:49:05;;;;;;;;;;;15.30;99.90;;;;;;5030925;28;20091;-70
2022/10/11 12:51:41;;;;;;;9.32;2.30;;;15.40;99.90;;;;;;5029521;28;19999;-71
2022/10/11 12:54:16;;;;;;;9.32;2.88;;;15.50;99.90;;;;;;5033342;28;20044;-71
2022/10/11 12:56:59;;;;;;;11.38;2.58;;;15.40;99.90;;;;;;5038187;28;20464;-71
2022/10/11 12:59:25;;;;;;;10.85;2.50;;;15.40;99.90;;;;;;5040064;28;20190;-70
2022/10/11 13:01:57;;;;;;;8.43;2.00;;;15.40;99.90;;;;;;5032405;28;20109;-71
2022/10/11 13:04:31;;;;;;;9.85;2.15;;;15.50;99.90;;;;;;5024690;28;21572;-70
2022/10/11 13:07:03;;;;;;;10.38;2.05;;;15.50;99.90;;;;;;5028367;28;20366;-70
2022/10/11 13:09:35;;;;;;;5.60;1.85;;;15.50;99.90;;;;;;5035106;28;20070;-70